Time;durP1;ratioP1;P1;durP2;ratioP2;P2;SDS_P1;SDS_P2;PMS_P1;PMS_P2;Temp;Humidity;BMP_temperature;BMP_pressure;BME280_temperature;BME280_humidity;BME280_pressure;Samples;Min_cycle;Max_cycle;Signal;HPM_P1;HPM_P2
2022/07/01 00:01:55;;;;;;;21.87;14.93;;;;;;;;;;6191371;28;20298;-81
2022/07/01 00:04:55;;;;;;;24.17;15.60;;;;;;;;;;6205656;28;20064;-81
2022/07/01 00:07:56;;;;;;;23.00;14.68;;;;;;;;;;6208965;28;20042;-81
2022/07/01 00:10:56;;;;;;;24.37;14.63;;;;;;;;;;6211829;28;20030;-81
2022/07/01 00:13:56;;;;;;;22.03;13.33;;;;;;;;;;6196959;28;20218;-81
2022/07/01 00:16:56;;;;;;;21.27;15.20;;;;;;;;;;6196522;28;20018;-81
2022/07/01 00:19:56;;;;;;;18.17;13.77;;;;;;;;;;6196505;28;20025;-81
2022/07/01 00:22:57;;;;;;;22.70;14.60;;;;;;;;;;6215714;28;20030;-80
2022/07/01 00:25:57;;;;;;;22.13;13.77;;;;;;;;;;6211374;28;20025;-81
2022/07/01 00:28:57;;;;;;;24.37;14.57;;;;;;;;;;6216137;28;20023;-80
2022/07/01 00:31:57;;;;;;;23.43;14.73;;;;;;;;;;6201364;28;20015;-81
2022/07/01 00:34:58;;;;;;;18.67;13.63;;;;;;;;;;6193678;28;20034;-81
2022/07/01 00:37:58;;;;;;;24.73;13.88;;;;;;;;;;6204919;28;20018;-81
2022/07/01 00:40:58;;;;;;;20.60;14.13;;;;;;;;;;6194132;28;20032;-81
2022/07/01 00:43:58;;;;;;;17.90;13.90;;;;;;;;;;6195454;28;20019;-81
2022/07/01 00:47:02;;;;;;;23.13;13.57;;;;;;;;;;6177823;28;20021;-81
2022/07/01 00:50:09;;;;;;;19.33;12.50;;;;;;;;;;6190437;28;20031;-81
2022/07/01 00:53:10;;;;;;;18.27;12.77;;;;;;;;;;6200007;28;20015;-80
2022/07/01 00:56:10;;;;;;;22.23;14.97;;;;;;;;;;6206213;28;20068;-80
2022/07/01 00:59:10;;;;;;;23.03;14.07;;;;;;;;;;6193071;28;20026;-81
2022/07/01 01:02:11;;;;;;;15.60;13.17;;;;;;;;;;6200376;28;20092;-81
2022/07/01 01:05:11;;;;;;;19.80;12.30;;;;;;;;;;6186371;28;20025;-81
2022/07/01 01:08:11;;;;;;;16.57;11.90;;;;;;;;;;6199161;28;20121;-81
2022/07/01 01:11:13;;;;;;;20.57;13.33;;;;;;;;;;6198228;28;20034;-81
2022/07/01 01:14:13;;;;;;;20.38;12.55;;;;;;;;;;6199585;28;20073;-81
2022/07/01 01:17:15;;;;;;;19.13;12.27;;;;;;;;;;6195106;28;20026;-81
2022/07/01 01:20:18;;;;;;;17.23;13.13;;;;;;;;;;6190701;28;20027;-81
2022/07/01 01:23:19;;;;;;;19.60;12.93;;;;;;;;;;6190692;28;20089;-81
2022/07/01 01:26:21;;;;;;;17.53;11.77;;;;;;;;;;6190965;28;20476;-80
2022/07/01 01:29:21;;;;;;;;;;;;;;;;;;6190992;28;20033;-81
2022/07/01 01:32:21;;;;;;;15.55;11.45;;;;;;;;;;6193868;28;19905;-81
2022/07/01 01:35:21;;;;;;;18.47;12.63;;;;;;;;;;6188092;28;20010;-82
2022/07/01 01:38:22;;;;;;;16.27;11.63;;;;;;;;;;6187063;28;20026;-81
2022/07/01 01:41:22;;;;;;;16.17;12.30;;;;;;;;;;6191657;28;20497;-81
2022/07/01 01:44:22;;;;;;;18.35;12.13;;;;;;;;;;6188796;28;20032;-81
2022/07/01 01:47:22;;;;;;;20.50;13.03;;;;;;;;;;6194965;28;20117;-81
2022/07/01 01:50:23;;;;;;;18.60;12.60;;;;;;;;;;6191893;28;20065;-81
2022/07/01 01:53:23;;;;;;;16.23;12.07;;;;;;;;;;6189141;28;20022;-81
2022/07/01 01:56:23;;;;;;;17.43;12.77;;;;;;;;;;6203113;28;20022;-80
2022/07/01 01:59:24;;;;;;;17.33;12.80;;;;;;;;;;6208722;28;20156;-81
2022/07/01 02:02:24;;;;;;;21.07;13.63;;;;;;;;;;6199348;28;20057;-81
2022/07/01 02:05:24;;;;;;;18.85;13.55;;;;;;;;;;6191692;28;20449;-80
2022/07/01 02:08:24;;;;;;;16.17;12.83;;;;;;;;;;6193325;28;20042;-81
2022/07/01 02:11:25;;;;;;;18.67;13.90;;;;;;;;;;6190661;28;20078;-81
2022/07/01 02:14:25;;;;;;;17.20;12.43;;;;;;;;;;6216103;28;20023;-81
2022/07/01 02:17:26;;;;;;;14.60;12.00;;;;;;;;;;6195841;28;20041;-81
2022/07/01 02:20:26;;;;;;;19.20;12.73;;;;;;;;;;6188799;28;20023;-81
2022/07/01 02:23:26;;;;;;;22.47;11.83;;;;;;;;;;6188794;28;20095;-81
2022/07/01 02:26:26;;;;;;;19.90;12.83;;;;;;;;;;6193329;28;20026;-81
2022/07/01 02:29:27;;;;;;;17.17;12.37;;;;;;;;;;6193084;28;20035;-82
2022/07/01 02:32:27;;;;;;;17.17;12.80;;;;;;;;;;6191917;28;20029;-81
2022/07/01 02:35:27;;;;;;;18.45;13.80;;;;;;;;;;6190549;28;20015;-81
2022/07/01 02:38:27;;;;;;;20.87;13.53;;;;;;;;;;6202329;28;20019;-81
2022/07/01 02:41:28;;;;;;;13.77;11.20;;;;;;;;;;6190286;28;20030;-81
2022/07/01 02:44:28;;;;;;;17.40;12.33;;;;;;;;;;6201006;28;20119;-81
2022/07/01 02:47:35;;;;;;;17.47;12.23;;;;;;;;;;6197431;28;20022;-80
2022/07/01 02:50:36;;;;;;;18.08;11.85;;;;;;;;;;6203811;28;20026;-81
2022/07/01 02:53:36;;;;;;;18.50;12.13;;;;;;;;;;6206079;28;20080;-81
2022/07/01 02:56:36;;;;;;;17.17;12.03;;;;;;;;;;6193375;28;20113;-81
2022/07/01 02:59:36;;;;;;;18.57;12.83;;;;;;;;;;6203197;28;20014;-81
2022/07/01 03:02:37;;;;;;;18.30;11.53;;;;;;;;;;6194065;28;20522;-80
2022/07/01 03:05:37;;;;;;;17.00;11.00;;;;;;;;;;6204251;28;20088;-80
2022/07/01 03:08:37;;;;;;;18.07;12.43;;;;;;;;;;6196238;28;20053;-81
2022/07/01 03:11:37;;;;;;;17.23;11.85;;;;;;;;;;6219980;28;20027;-81
2022/07/01 03:14:37;;;;;;;17.87;12.13;;;;;;;;;;6202345;28;20018;-81
2022/07/01 03:17:39;;;;;;;16.52;11.60;;;;;;;;;;6198323;28;20025;-81
2022/07/01 03:20:39;;;;;;;15.00;10.60;;;;;;;;;;6202902;28;20398;-81
2022/07/01 03:23:39;;;;;;;17.03;11.37;;;;;;;;;;6202542;28;20269;-81
2022/07/01 03:26:39;;;;;;;17.80;12.10;;;;;;;;;;6202002;28;20097;-81
2022/07/01 03:29:40;;;;;;;16.67;10.90;;;;;;;;;;6200305;28;20048;-81
2022/07/01 03:32:40;;;;;;;17.50;11.30;;;;;;;;;;6221350;28;20032;-81
2022/07/01 03:35:45;;;;;;;19.20;11.77;;;;;;;;;;6206401;28;20025;-81
2022/07/01 03:38:46;;;;;;;15.98;12.25;;;;;;;;;;6205000;28;20494;-81
2022/07/01 03:41:46;;;;;;;14.53;11.50;;;;;;;;;;6204562;28;20022;-81
2022/07/01 03:44:46;;;;;;;17.33;11.32;;;;;;;;;;6192558;28;20158;-81
2022/07/01 03:47:47;;;;;;;17.43;12.00;;;;;;;;;;6232190;28;20029;-81
2022/07/01 03:50:48;;;;;;;17.77;11.07;;;;;;;;;;6225530;28;20061;-81
2022/07/01 03:57:08;;;;;;;17.58;11.88;;;;;;;;;;6211173;28;20018;-81
2022/07/01 04:00:08;;;;;;;19.15;11.48;;;;;;;;;;6207080;28;20033;-81
2022/07/01 04:03:09;;;;;;;13.27;11.30;;;;;;;;;;6203657;28;20094;-81
2022/07/01 04:06:09;;;;;;;18.37;11.27;;;;;;;;;;6207859;28;20014;-81
2022/07/01 04:09:10;;;;;;;17.17;10.67;;;;;;;;;;6204923;28;20117;-80
2022/07/01 04:12:12;;;;;;;18.08;11.73;;;;;;;;;;6196811;28;20022;-81
2022/07/01 04:15:12;;;;;;;;;;;;;;;;;;6189686;28;20081;-82
2022/07/01 04:18:12;;;;;;;16.88;11.38;;;;;;;;;;6195866;28;19913;-81
2022/07/01 04:24:34;;;;;;;17.88;12.43;;;;;;;;;;6203710;28;20030;-81
2022/07/01 04:27:34;;;;;;;13.48;10.65;;;;;;;;;;6202984;28;20057;-82
2022/07/01 04:30:35;;;;;;;16.13;9.83;;;;;;;;;;6193640;28;20015;-81
2022/07/01 04:33:35;;;;;;;18.85;11.15;;;;;;;;;;6191166;28;20431;-81
2022/07/01 04:36:35;;;;;;;11.60;9.83;;;;;;;;;;6191447;28;20018;-81
2022/07/01 04:39:35;;;;;;;13.17;10.63;;;;;;;;;;6189653;28;20054;-81
2022/07/01 04:42:36;;;;;;;14.27;9.77;;;;;;;;;;6205977;28;20042;-81
2022/07/01 04:45:36;;;;;;;14.73;9.73;;;;;;;;;;6197480;28;20113;-82
2022/07/01 04:48:36;;;;;;;12.18;9.43;;;;;;;;;;6186973;28;20031;-81
2022/07/01 04:51:36;;;;;;;16.38;10.82;;;;;;;;;;6191486;28;20014;-81
2022/07/01 04:54:36;;;;;;;13.10;9.47;;;;;;;;;;6203532;28;20011;-81
2022/07/01 04:57:37;;;;;;;16.33;10.27;;;;;;;;;;6185178;28;20018;-81
2022/07/01 05:00:37;;;;;;;15.97;10.03;;;;;;;;;;6200684;28;20014;-81
2022/07/01 05:03:38;;;;;;;14.65;10.95;;;;;;;;;;6182718;28;20027;-81
2022/07/01 05:06:38;;;;;;;13.60;9.70;;;;;;;;;;6193664;28;20115;-82
2022/07/01 05:09:39;;;;;;;13.57;10.83;;;;;;;;;;6196907;28;20402;-82
2022/07/01 05:12:39;;;;;;;21.80;11.30;;;;;;;;;;6185839;28;20018;-81
2022/07/01 05:15:39;;;;;;;14.17;11.30;;;;;;;;;;6195817;28;20666;-81
2022/07/01 05:22:01;;;;;;;13.40;11.45;;;;;;;;;;6186563;28;20038;-78
2022/07/01 05:25:02;;;;;;;16.67;11.77;;;;;;;;;;6191041;28;20030;-79
2022/07/01 05:28:02;;;;;;;17.53;11.07;;;;;;;;;;6181204;28;20034;-79
2022/07/01 05:31:02;;;;;;;15.67;11.87;;;;;;;;;;6201289;28;20027;-79
2022/07/01 05:34:02;;;;;;;21.20;11.83;;;;;;;;;;6184805;28;20018;-80
2022/07/01 05:37:03;;;;;;;15.50;11.90;;;;;;;;;;6192441;28;20603;-80
2022/07/01 05:40:04;;;;;;;15.07;11.07;;;;;;;;;;6202112;28;20022;-79
2022/07/01 05:43:04;;;;;;;;;;;;;;;;;;6204378;28;20014;-80
2022/07/01 05:46:04;;;;;;;16.60;10.25;;;;;;;;;;6191269;28;19908;-80
2022/07/01 05:49:04;;;;;;;;;;;;;;;;;;6197632;28;20014;-80
2022/07/01 05:52:04;;;;;;;13.82;10.27;;;;;;;;;;6200099;28;19918;-80
2022/07/01 05:55:05;;;;;;;13.00;9.35;;;;;;;;;;6205198;28;20034;-80
2022/07/01 05:58:08;;;;;;;11.83;9.30;;;;;;;;;;6198664;28;20170;-80
2022/07/01 06:01:08;;;;;;;15.10;10.65;;;;;;;;;;6190769;28;20265;-80
2022/07/01 06:04:08;;;;;;;15.50;9.60;;;;;;;;;;6216400;28;20433;-80
2022/07/01 06:07:10;;;;;;;13.50;9.50;;;;;;;;;;6193614;28;20050;-80
2022/07/01 06:10:10;;;;;;;16.27;9.90;;;;;;;;;;6219929;28;20018;-81
2022/07/01 06:13:10;;;;;;;14.05;9.98;;;;;;;;;;6198838;28;20092;-80
2022/07/01 06:16:11;;;;;;;13.97;10.20;;;;;;;;;;6186535;28;20046;-80
2022/07/01 06:19:11;;;;;;;13.73;10.77;;;;;;;;;;6208139;28;20023;-80
2022/07/01 06:22:16;;;;;;;17.43;11.40;;;;;;;;;;6195776;28;20501;-80
2022/07/01 06:25:16;;;;;;;12.30;8.73;;;;;;;;;;6201258;28;20015;-80
2022/07/01 06:28:16;;;;;;;12.97;9.70;;;;;;;;;;6202444;28;20570;-80
2022/07/01 06:31:17;;;;;;;16.83;8.83;;;;;;;;;;6205368;28;20197;-80
2022/07/01 06:34:17;;;;;;;13.77;8.93;;;;;;;;;;6198486;28;20273;-80
2022/07/01 06:37:20;;;;;;;13.70;8.73;;;;;;;;;;6189900;28;20426;-80
2022/07/01 06:40:20;;;;;;;13.35;8.90;;;;;;;;;;6214510;28;20022;-81
2022/07/01 06:43:20;;;;;;;12.10;8.97;;;;;;;;;;6193016;28;20030;-80
2022/07/01 06:46:21;;;;;;;10.00;8.47;;;;;;;;;;6197180;28;20951;-80
2022/07/01 06:49:21;;;;;;;10.45;7.38;;;;;;;;;;6202973;28;20024;-81
2022/07/01 06:52:21;;;;;;;13.10;8.77;;;;;;;;;;6198046;28;20470;-81
2022/07/01 06:55:22;;;;;;;15.90;8.27;;;;;;;;;;6193475;28;20029;-81
2022/07/01 06:58:22;;;;;;;19.83;8.87;;;;;;;;;;6215582;28;20064;-81
2022/07/01 07:01:22;;;;;;;14.00;7.00;;;;;;;;;;6195408;28;20603;-81
2022/07/01 07:04:23;;;;;;;10.93;6.90;;;;;;;;;;6198797;28;20776;-81
2022/07/01 07:07:23;;;;;;;11.85;7.88;;;;;;;;;;6190915;28;21434;-82
2022/07/01 07:10:24;;;;;;;11.70;7.57;;;;;;;;;;6192809;28;20022;-81
2022/07/01 07:13:24;;;;;;;10.65;8.00;;;;;;;;;;6206232;28;20119;-80
2022/07/01 07:16:26;;;;;;;15.23;7.88;;;;;;;;;;6198275;28;20018;-81
2022/07/01 07:19:26;;;;;;;7.85;6.03;;;;;;;;;;6198987;28;20133;-81
2022/07/01 07:22:26;;;;;;;11.27;6.53;;;;;;;;;;6207623;28;20067;-82
2022/07/01 07:25:27;;;;;;;12.30;5.57;;;;;;;;;;6193557;28;20030;-81
2022/07/01 07:28:27;;;;;;;7.80;6.43;;;;;;;;;;6188252;28;20038;-81
2022/07/01 07:31:27;;;;;;;7.87;5.70;;;;;;;;;;6190940;28;20019;-81
2022/07/01 07:34:27;;;;;;;8.27;5.23;;;;;;;;;;6204023;28;20029;-81
2022/07/01 07:37:32;;;;;;;10.82;5.57;;;;;;;;;;6201446;28;20010;-81
2022/07/01 07:40:32;;;;;;;8.73;6.30;;;;;;;;;;6196896;28;20018;-81
2022/07/01 07:43:32;;;;;;;10.93;6.17;;;;;;;;;;6205690;28;20099;-82
2022/07/01 07:46:32;;;;;;;9.77;6.10;;;;;;;;;;6199653;28;20030;-79
2022/07/01 07:49:32;;;;;;;7.80;6.43;;;;;;;;;;6207583;28;20014;-81
2022/07/01 07:52:33;;;;;;;9.65;6.03;;;;;;;;;;6208429;28;20015;-80
2022/07/01 07:55:33;;;;;;;11.97;6.87;;;;;;;;;;6208412;28;20010;-80
2022/07/01 07:58:33;;;;;;;12.27;6.22;;;;;;;;;;6196373;28;20010;-81
2022/07/01 08:01:33;;;;;;;10.63;5.93;;;;;;;;;;6210520;28;20531;-81
2022/07/01 08:04:34;;;;;;;10.27;5.77;;;;;;;;;;6195162;28;20010;-80
2022/07/01 08:07:34;;;;;;;13.77;6.00;;;;;;;;;;6192691;28;20331;-81
2022/07/01 08:10:35;;;;;;;12.57;7.03;;;;;;;;;;6198256;28;20022;-80
2022/07/01 08:13:35;;;;;;;11.93;5.87;;;;;;;;;;6203257;28;20175;-80
2022/07/01 08:16:35;;;;;;;15.68;6.43;;;;;;;;;;6194300;28;20025;-80
2022/07/01 08:19:35;;;;;;;7.70;5.82;;;;;;;;;;6198677;28;20082;-80
2022/07/01 08:22:36;;;;;;;7.93;5.67;;;;;;;;;;6193845;28;20471;-81
2022/07/01 08:25:36;;;;;;;13.33;6.80;;;;;;;;;;6202217;28;20090;-81
2022/07/01 08:28:36;;;;;;;8.13;6.10;;;;;;;;;;6199057;28;20497;-80
2022/07/01 08:31:36;;;;;;;11.40;6.47;;;;;;;;;;6204932;28;20643;-80
2022/07/01 08:34:37;;;;;;;9.93;6.37;;;;;;;;;;6190467;28;20624;-80
2022/07/01 08:37:37;;;;;;;12.73;6.67;;;;;;;;;;6231545;28;20405;-81
2022/07/01 08:40:37;;;;;;;7.65;5.60;;;;;;;;;;6209710;28;20034;-82
2022/07/01 08:43:38;;;;;;;9.43;5.82;;;;;;;;;;6202795;28;20054;-79
2022/07/01 08:46:38;;;;;;;7.07;4.88;;;;;;;;;;6196477;28;20026;-79
2022/07/01 08:49:38;;;;;;;6.40;5.23;;;;;;;;;;6187949;28;20121;-79
2022/07/01 08:52:39;;;;;;;9.20;6.37;;;;;;;;;;6191546;28;20019;-79
2022/07/01 08:58:58;;;;;;;7.45;5.32;;;;;;;;;;6189021;28;20119;-80
2022/07/01 09:02:00;;;;;;;9.63;6.25;;;;;;;;;;6190534;28;20336;-79
2022/07/01 09:05:06;;;;;;;13.02;6.45;;;;;;;;;;6192683;28;20033;-80
2022/07/01 09:08:07;;;;;;;8.05;5.65;;;;;;;;;;6185878;28;20042;-79
2022/07/01 09:11:20;;;;;;;13.23;5.77;;;;;;;;;;6191235;28;20121;-79
2022/07/01 09:14:24;;;;;;;9.55;6.05;;;;;;;;;;6201065;28;20014;-79
2022/07/01 09:17:24;;;;;;;9.88;7.13;;;;;;;;;;6185352;28;20437;-79
2022/07/01 09:20:26;;;;;;;9.87;6.53;;;;;;;;;;6190790;28;20023;-79
2022/07/01 09:23:26;;;;;;;11.27;6.40;;;;;;;;;;6198261;28;20033;-79
2022/07/01 09:26:27;;;;;;;9.10;6.53;;;;;;;;;;6195809;28;20022;-80
2022/07/01 09:29:28;;;;;;;13.97;7.30;;;;;;;;;;6181591;28;20070;-79
2022/07/01 09:32:29;;;;;;;13.70;6.63;;;;;;;;;;6187041;28;20266;-80
2022/07/01 09:35:31;;;;;;;14.13;6.93;;;;;;;;;;6187906;28;20018;-80
2022/07/01 09:38:31;;;;;;;8.80;6.03;;;;;;;;;;6198293;28;20061;-80
2022/07/01 09:41:35;;;;;;;9.57;6.13;;;;;;;;;;6200833;28;20019;-80
2022/07/01 09:44:50;;;;;;;13.32;6.50;;;;;;;;;;6194503;28;20106;-80
2022/07/01 09:47:51;;;;;;;13.60;7.00;;;;;;;;;;6206145;28;20061;-79
2022/07/01 09:50:51;;;;;;;15.57;7.13;;;;;;;;;;6199392;28;20069;-80
2022/07/01 09:53:51;;;;;;;13.10;7.38;;;;;;;;;;6202148;28;20045;-80
2022/07/01 09:56:51;;;;;;;16.97;7.83;;;;;;;;;;6207323;28;20022;-80
2022/07/01 09:59:52;;;;;;;9.03;6.50;;;;;;;;;;6198395;28;20033;-81
2022/07/01 10:02:53;;;;;;;13.05;7.13;;;;;;;;;;6199536;28;20583;-80
2022/07/01 10:05:54;;;;;;;10.10;6.90;;;;;;;;;;6214074;28;20480;-81
2022/07/01 10:09:00;;;;;;;9.60;6.78;;;;;;;;;;6204985;28;20133;-80
2022/07/01 10:12:19;;;;;;;11.25;6.55;;;;;;;;;;6200883;28;20036;-80
2022/07/01 10:15:20;;;;;;;13.80;6.68;;;;;;;;;;6218455;28;20048;-80
2022/07/01 10:18:21;;;;;;;12.60;7.53;;;;;;;;;;6199166;28;20086;-81
2022/07/01 10:21:26;;;;;;;9.77;6.88;;;;;;;;;;6197814;28;20448;-80
2022/07/01 10:24:26;;;;;;;9.90;6.53;;;;;;;;;;6191473;28;20405;-80
2022/07/01 10:27:26;;;;;;;10.20;6.55;;;;;;;;;;6196461;28;20418;-80
2022/07/01 10:30:30;;;;;;;9.43;6.87;;;;;;;;;;6188037;28;20084;-79
2022/07/01 10:33:31;;;;;;;10.07;7.28;;;;;;;;;;6209821;28;20129;-80
2022/07/01 10:36:32;;;;;;;13.35;6.45;;;;;;;;;;6197455;28;20036;-80
2022/07/01 10:39:52;;;;;;;11.52;6.97;;;;;;;;;;6213054;28;20022;-81
2022/07/01 10:42:59;;;;;;;10.75;6.43;;;;;;;;;;6212589;28;20049;-80
2022/07/01 10:45:59;;;;;;;9.73;6.90;;;;;;;;;;6213544;28;20083;-81
2022/07/01 10:48:59;;;;;;;14.60;6.77;;;;;;;;;;6205874;28;20046;-81
2022/07/01 10:51:59;;;;;;;10.93;5.93;;;;;;;;;;6210280;28;20531;-81
2022/07/01 10:55:01;;;;;;;11.90;6.90;;;;;;;;;;6197131;28;20493;-80
2022/07/01 10:58:01;;;;;;;10.63;6.72;;;;;;;;;;6220581;28;20417;-80
2022/07/01 11:01:03;;;;;;;11.88;6.00;;;;;;;;;;6206128;28;20006;-80
2022/07/01 11:04:03;;;;;;;10.52;6.28;;;;;;;;;;6205974;28;20045;-80
2022/07/01 11:07:03;;;;;;;17.90;6.40;;;;;;;;;;6194000;28;20038;-80
2022/07/01 11:10:05;;;;;;;14.80;6.22;;;;;;;;;;6201349;28;20056;-80
2022/07/01 11:13:06;;;;;;;12.88;5.80;;;;;;;;;;6206057;28;20034;-80
2022/07/01 11:16:08;;;;;;;13.80;6.05;;;;;;;;;;6199383;28;20513;-81
2022/07/01 11:19:08;;;;;;;10.15;5.70;;;;;;;;;;6206063;28;20100;-80
2022/07/01 11:22:09;;;;;;;9.43;6.10;;;;;;;;;;6207458;28;20026;-81
2022/07/01 11:25:10;;;;;;;11.40;5.97;;;;;;;;;;6201865;28;20033;-81
2022/07/01 11:28:11;;;;;;;12.20;7.15;;;;;;;;;;6209551;28;20029;-80
2022/07/01 11:31:11;;;;;;;12.15;5.63;;;;;;;;;;6200546;28;20029;-80
2022/07/01 11:34:15;;;;;;;13.48;6.15;;;;;;;;;;6198471;28;20054;-80
2022/07/01 11:40:35;;;;;;;8.80;4.83;;;;;;;;;;6197062;28;20346;-81
2022/07/01 11:43:39;;;;;;;10.80;6.10;;;;;;;;;;6208706;28;20065;-80
2022/07/01 11:46:39;;;;;;;10.45;5.55;;;;;;;;;;6198657;28;20034;-80
2022/07/01 11:49:43;;;;;;;10.37;5.40;;;;;;;;;;6195440;28;20026;-80
2022/07/01 11:52:44;;;;;;;9.70;5.78;;;;;;;;;;6202715;28;20018;-80
2022/07/01 11:55:45;;;;;;;8.63;5.63;;;;;;;;;;6207384;28;20034;-80
2022/07/01 11:58:49;;;;;;;10.73;5.07;;;;;;;;;;6199493;28;20033;-80
2022/07/01 12:01:51;;;;;;;10.15;5.20;;;;;;;;;;6203029;28;20072;-80
2022/07/01 12:04:52;;;;;;;9.25;4.55;;;;;;;;;;6204648;28;20013;-81
2022/07/01 12:07:52;;;;;;;8.20;4.30;;;;;;;;;;6202892;28;20042;-81
2022/07/01 12:10:52;;;;;;;14.83;5.60;;;;;;;;;;6191096;28;20362;-80
2022/07/01 12:13:53;;;;;;;13.93;4.53;;;;;;;;;;6200562;28;20065;-80
2022/07/01 12:16:54;;;;;;;7.03;4.15;;;;;;;;;;6181107;28;20049;-80
2022/07/01 12:19:54;;;;;;;7.80;4.18;;;;;;;;;;6206123;28;20025;-80
2022/07/01 12:23:09;;;;;;;6.73;3.87;;;;;;;;;;6199805;28;20022;-80
2022/07/01 12:26:10;;;;;;;9.88;4.47;;;;;;;;;;6212931;28;20011;-80
2022/07/01 12:29:10;;;;;;;8.38;4.03;;;;;;;;;;6207636;28;20366;-80
2022/07/01 12:32:10;;;;;;;;;;;;;;;;;;6202993;28;20087;-80
2022/07/01 12:35:55;;;;;;;;;;;;;;;;;;6197983;28;19913;-80
2022/07/01 12:38:31;;;;;;;9.55;4.63;;;;;;;;;;6204838;28;19921;-80
2022/07/01 12:41:35;;;;;;;7.10;4.43;;;;;;;;;;6199136;28;20053;-80
2022/07/01 12:44:43;;;;;;;8.50;4.68;;;;;;;;;;6201663;28;20017;-80
2022/07/01 12:47:45;;;;;;;8.70;4.43;;;;;;;;;;6191029;28;20014;-80
2022/07/01 12:50:46;;;;;;;8.02;4.65;;;;;;;;;;6206298;28;20084;-81
2022/07/01 12:53:46;;;;;;;10.13;3.85;;;;;;;;;;6196650;28;20022;-81
2022/07/01 12:56:46;;;;;;;9.20;3.83;;;;;;;;;;6209576;28;20017;-80
2022/07/01 12:59:46;;;;;;;12.60;4.27;;;;;;;;;;6191223;28;20065;-80
2022/07/01 13:02:47;;;;;;;5.90;3.97;;;;;;;;;;6201202;28;20669;-80
2022/07/01 13:05:47;;;;;;;6.45;3.72;;;;;;;;;;6205661;28;20014;-80
2022/07/01 13:08:47;;;;;;;10.33;3.73;;;;;;;;;;6210458;28;20045;-80
2022/07/01 13:11:48;;;;;;;6.23;3.53;;;;;;;;;;6195499;28;20116;-81
2022/07/01 13:14:48;;;;;;;6.78;3.42;;;;;;;;;;6185435;28;20284;-81
2022/07/01 13:17:48;;;;;;;6.80;3.90;;;;;;;;;;6191899;28;20029;-81
2022/07/01 13:20:49;;;;;;;7.70;3.60;;;;;;;;;;6198325;28;20029;-80
2022/07/01 13:23:49;;;;;;;6.67;4.37;;;;;;;;;;6206199;28;20010;-81
2022/07/01 13:26:49;;;;;;;9.83;4.10;;;;;;;;;;6190472;28;20041;-80
2022/07/01 13:29:49;;;;;;;5.73;3.90;;;;;;;;;;6190835;28;20504;-80
2022/07/01 13:32:53;;;;;;;7.97;3.40;;;;;;;;;;6191949;28;20032;-81
2022/07/01 13:35:53;;;;;;;8.50;4.05;;;;;;;;;;6206963;28;20319;-80
2022/07/01 13:38:53;;;;;;;8.73;3.50;;;;;;;;;;6192823;28;20059;-80
2022/07/01 13:41:55;;;;;;;6.13;3.63;;;;;;;;;;6195177;28;20381;-81
2022/07/01 13:44:56;;;;;;;10.32;3.97;;;;;;;;;;6191139;28;20725;-80
2022/07/01 13:47:56;;;;;;;7.97;4.57;;;;;;;;;;6196536;28;20019;-81
2022/07/01 13:50:56;;;;;;;6.07;3.43;;;;;;;;;;6207818;28;20072;-81
2022/07/01 13:53:59;;;;;;;7.17;3.87;;;;;;;;;;6194969;28;20030;-80
2022/07/01 13:56:59;;;;;;;8.10;4.90;;;;;;;;;;6187310;28;20026;-80
2022/07/01 13:59:59;;;;;;;7.00;3.73;;;;;;;;;;6199364;28;20029;-80
2022/07/01 14:03:00;;;;;;;8.10;3.77;;;;;;;;;;6190667;28;20046;-81
2022/07/01 14:06:00;;;;;;;5.80;3.83;;;;;;;;;;6200797;28;20072;-81
2022/07/01 14:09:00;;;;;;;10.10;4.43;;;;;;;;;;6216862;28;20049;-81
2022/07/01 14:12:01;;;;;;;11.15;4.18;;;;;;;;;;6203457;28;20261;-81
2022/07/01 14:15:01;;;;;;;7.17;4.33;;;;;;;;;;6196572;28;20387;-81
2022/07/01 14:18:02;;;;;;;6.00;4.50;;;;;;;;;;6207477;28;20014;-81
2022/07/01 14:21:03;;;;;;;11.05;5.03;;;;;;;;;;6214597;28;20018;-81
2022/07/01 14:24:04;;;;;;;10.50;4.20;;;;;;;;;;6206541;28;20022;-81
2022/07/01 14:27:04;;;;;;;7.95;5.20;;;;;;;;;;6197740;28;20449;-81
2022/07/01 14:30:08;;;;;;;15.20;4.57;;;;;;;;;;6211010;28;20037;-81
2022/07/01 14:33:08;;;;;;;6.45;3.83;;;;;;;;;;6213502;28;20010;-80
2022/07/01 14:36:09;;;;;;;7.60;4.30;;;;;;;;;;6207505;28;20022;-81
2022/07/01 14:39:09;;;;;;;7.37;4.33;;;;;;;;;;6199448;28;20019;-81
2022/07/01 14:42:09;;;;;;;7.63;3.70;;;;;;;;;;6226831;28;20029;-80
2022/07/01 14:45:11;;;;;;;8.10;3.90;;;;;;;;;;6218922;28;20088;-81
2022/07/01 14:48:12;;;;;;;4.57;3.28;;;;;;;;;;6208848;28;20977;-81
2022/07/01 14:51:12;;;;;;;7.30;3.97;;;;;;;;;;6223169;28;20044;-82
2022/07/01 14:54:12;;;;;;;7.07;3.83;;;;;;;;;;6211468;28;20485;-81
2022/07/01 14:57:13;;;;;;;5.83;3.90;;;;;;;;;;6202042;28;20021;-80
2022/07/01 15:00:13;;;;;;;6.87;4.40;;;;;;;;;;6203112;28;20021;-80
2022/07/01 15:03:14;;;;;;;6.30;3.60;;;;;;;;;;6212008;28;20098;-80
2022/07/01 15:06:14;;;;;;;7.05;3.55;;;;;;;;;;6217103;28;20029;-81
2022/07/01 15:09:15;;;;;;;9.80;5.10;;;;;;;;;;6204867;28;20734;-80
2022/07/01 15:12:15;;;;;;;6.65;4.35;;;;;;;;;;6209545;28;20028;-80
2022/07/01 15:15:15;;;;;;;11.77;4.53;;;;;;;;;;6212986;28;20014;-81
2022/07/01 15:18:15;;;;;;;7.50;4.27;;;;;;;;;;6209273;28;20022;-80
2022/07/01 15:21:16;;;;;;;6.18;3.97;;;;;;;;;;6205682;28;20101;-80
2022/07/01 15:24:16;;;;;;;9.47;4.13;;;;;;;;;;6204790;28;20028;-80
2022/07/01 15:27:16;;;;;;;6.97;4.28;;;;;;;;;;6197916;28;20069;-80
2022/07/01 15:30:18;;;;;;;4.53;3.33;;;;;;;;;;6206096;28;20064;-80
2022/07/01 15:33:18;;;;;;;5.70;3.47;;;;;;;;;;6207690;28;20050;-80
2022/07/01 15:36:18;;;;;;;9.60;4.90;;;;;;;;;;6217840;28;20022;-81
2022/07/01 15:39:19;;;;;;;6.25;3.67;;;;;;;;;;6203247;28;20022;-80
2022/07/01 15:42:21;;;;;;;7.22;3.67;;;;;;;;;;6206523;28;20117;-80
2022/07/01 15:45:21;;;;;;;4.80;3.38;;;;;;;;;;6204151;28;20341;-80
2022/07/01 15:48:21;;;;;;;7.17;3.97;;;;;;;;;;6210746;28;20018;-80
2022/07/01 15:51:21;;;;;;;9.73;4.30;;;;;;;;;;6195787;28;20507;-80
2022/07/01 15:54:22;;;;;;;7.23;3.97;;;;;;;;;;6216217;28;20812;-80
2022/07/01 15:57:22;;;;;;;4.53;3.40;;;;;;;;;;6215001;28;20025;-80
2022/07/01 16:00:23;;;;;;;12.83;3.70;;;;;;;;;;6214665;28;20489;-80
2022/07/01 16:03:23;;;;;;;8.70;4.38;;;;;;;;;;6210526;28;20482;-80
2022/07/01 16:06:23;;;;;;;5.55;4.40;;;;;;;;;;6197750;28;20022;-80
2022/07/01 16:09:25;;;;;;;11.50;4.18;;;;;;;;;;6203506;28;20055;-81
2022/07/01 16:12:26;;;;;;;6.25;4.43;;;;;;;;;;6203230;28;20061;-81
2022/07/01 16:15:27;;;;;;;8.20;4.35;;;;;;;;;;6193377;28;20413;-80
2022/07/01 16:18:29;;;;;;;10.98;4.43;;;;;;;;;;6200342;28;20818;-80
2022/07/01 16:21:29;;;;;;;7.10;4.20;;;;;;;;;;6214144;28;20018;-80
2022/07/01 16:24:30;;;;;;;10.73;5.13;;;;;;;;;;6212019;28;20010;-80
2022/07/01 16:27:33;;;;;;;9.15;4.35;;;;;;;;;;6205851;28;20022;-80
2022/07/01 16:30:34;;;;;;;7.57;4.63;;;;;;;;;;6195340;28;20025;-80
2022/07/01 16:33:34;;;;;;;8.05;4.07;;;;;;;;;;6196841;28;20018;-80
2022/07/01 16:36:38;;;;;;;7.87;4.80;;;;;;;;;;6195366;28;20025;-80
2022/07/01 16:39:53;;;;;;;9.35;5.63;;;;;;;;;;6185150;28;20045;-80
2022/07/01 16:42:53;;;;;;;7.88;5.22;;;;;;;;;;6180920;28;20022;-80
2022/07/01 16:45:53;;;;;;;9.13;4.80;;;;;;;;;;6186823;28;20206;-81
2022/07/01 16:48:54;;;;;;;6.57;5.13;;;;;;;;;;6195486;28;20013;-80
2022/07/01 16:51:56;;;;;;;12.65;5.45;;;;;;;;;;6191418;28;20015;-80
2022/07/01 16:54:57;;;;;;;7.40;4.45;;;;;;;;;;6206228;28;20075;-81
2022/07/01 16:58:03;;;;;;;10.48;5.25;;;;;;;;;;6198583;28;20029;-81
2022/07/01 17:01:04;;;;;;;8.60;5.13;;;;;;;;;;6196680;28;20034;-80
2022/07/01 17:04:05;;;;;;;9.57;5.22;;;;;;;;;;6208173;28;20022;-80
2022/07/01 17:07:07;;;;;;;10.60;4.38;;;;;;;;;;6195354;28;20086;-80
2022/07/01 17:10:09;;;;;;;10.30;4.95;;;;;;;;;;6190578;28;20049;-80
2022/07/01 17:13:10;;;;;;;6.55;4.70;;;;;;;;;;6195663;28;20054;-81
2022/07/01 17:16:11;;;;;;;15.20;5.82;;;;;;;;;;6190371;28;20485;-80
2022/07/01 17:19:12;;;;;;;8.10;6.05;;;;;;;;;;6190540;28;20539;-80
2022/07/01 17:22:14;;;;;;;8.47;5.20;;;;;;;;;;6177575;28;20061;-80
2022/07/01 17:25:23;;;;;;;9.98;6.32;;;;;;;;;;6188160;28;20101;-80
2022/07/01 17:28:28;;;;;;;12.38;7.05;;;;;;;;;;6192738;28;20483;-81
2022/07/01 17:31:39;;;;;;;9.93;5.95;;;;;;;;;;6194238;28;20192;-80
2022/07/01 17:34:43;;;;;;;14.05;8.18;;;;;;;;;;6178052;28;20022;-80
2022/07/01 17:37:47;;;;;;;11.05;8.18;;;;;;;;;;6186892;28;20033;-80
2022/07/01 17:40:48;;;;;;;14.07;8.23;;;;;;;;;;6188701;28;20027;-80
2022/07/01 17:43:52;;;;;;;26.67;8.27;;;;;;;;;;6201782;28;20528;-79
2022/07/01 17:46:52;;;;;;;17.90;8.40;;;;;;;;;;6191274;28;20119;-80
2022/07/01 17:49:53;;;;;;;14.07;8.13;;;;;;;;;;6181198;28;20038;-80
2022/07/01 17:52:54;;;;;;;12.68;8.45;;;;;;;;;;6187413;28;20049;-80
2022/07/01 17:55:54;;;;;;;14.27;7.70;;;;;;;;;;6194859;28;20129;-80
2022/07/01 17:58:58;;;;;;;15.70;8.20;;;;;;;;;;6203829;28;20046;-81
2022/07/01 18:01:59;;;;;;;12.27;7.88;;;;;;;;;;6209005;28;20033;-79
2022/07/01 18:05:01;;;;;;;13.77;9.02;;;;;;;;;;6208547;28;20014;-79
2022/07/01 18:08:03;;;;;;;11.55;7.90;;;;;;;;;;6202286;28;20037;-80
2022/07/01 18:11:17;;;;;;;11.77;7.55;;;;;;;;;;6198676;28;20073;-80